Time;durP1;ratioP1;P1;durP2;ratioP2;P2;SDS_P1;SDS_P2;PMS_P1;PMS_P2;Temp;Humidity;BMP_temperature;BMP_pressure;BME280_temperature;BME280_humidity;BME280_pressure;Samples;Min_cycle;Max_cycle;Signal;HPM_P1;HPM_P2
2023/08/06 00:00:26;;;;;;;13.13;6.00;;;14.20;99.90;;;;;;5072868;28;20043;-81
2023/08/06 00:02:52;;;;;;;11.77;6.20;;;14.20;99.90;;;;;;5070610;28;20489;-80
2023/08/06 00:05:18;;;;;;;10.80;5.55;;;14.20;99.90;;;;;;5037808;28;20099;-80
2023/08/06 00:07:45;;;;;;;10.80;5.60;;;14.20;99.90;;;;;;5037334;28;20072;-81
2023/08/06 00:10:11;;;;;;;10.68;5.70;;;14.20;99.90;;;;;;5070799;28;20040;-81
2023/08/06 00:12:37;;;;;;;10.82;5.75;;;14.20;99.90;;;;;;5093025;28;20044;-81
2023/08/06 00:15:02;;;;;;;10.63;6.03;;;14.20;99.90;;;;;;5076249;28;20048;-81
2023/08/06 00:17:28;;;;;;;10.82;5.72;;;14.10;99.90;;;;;;5055881;28;20040;-81
2023/08/06 00:19:54;;;;;;;10.35;6.05;;;14.10;99.90;;;;;;5056098;28;20100;-82
2023/08/06 00:22:20;;;;;;;11.55;5.88;;;14.10;99.90;;;;;;5035182;28;20143;-80
2023/08/06 00:24:45;;;;;;;11.57;5.45;;;14.50;99.90;;;;;;5039958;28;20043;-80
2023/08/06 00:27:11;;;;;;;11.23;5.68;;;14.10;99.90;;;;;;5035011;28;20036;-81
2023/08/06 00:29:37;;;;;;;11.38;6.28;;;14.10;99.90;;;;;;5033921;28;20051;-81
2023/08/06 00:32:03;;;;;;;11.68;5.95;;;14.10;99.90;;;;;;5068225;28;20126;-81
2023/08/06 00:34:28;;;;;;;11.93;6.05;;;14.00;99.90;;;;;;5047284;28;20521;-81
2023/08/06 00:36:54;;;;;;;10.82;6.28;;;14.00;99.90;;;;;;5027326;28;20044;-81
2023/08/06 00:39:20;;;;;;;10.43;6.15;;;14.00;99.90;;;;;;5051400;28;20037;-81
2023/08/06 00:41:46;;;;;;;12.20;6.32;;;14.00;99.90;;;;;;5072015;28;20721;-81
2023/08/06 00:44:11;;;;;;;12.02;6.20;;;14.00;99.90;;;;;;5051854;28;20440;-81
2023/08/06 00:46:37;;;;;;;11.77;6.15;;;14.00;99.90;;;;;;5069626;28;20036;-81
2023/08/06 00:49:04;;;;;;;10.90;5.85;;;13.90;99.90;;;;;;5039434;28;20365;-81
2023/08/06 00:51:30;;;;;;;13.45;5.88;;;13.90;99.90;;;;;;5048835;28;20165;-80
2023/08/06 00:53:56;;;;;;;11.57;5.80;;;13.90;99.90;;;;;;5049920;28;20043;-81
2023/08/06 00:56:22;;;;;;;10.60;5.63;;;13.90;99.90;;;;;;5072077;28;20416;-81
2023/08/06 00:58:48;;;;;;;10.85;6.00;;;13.90;99.90;;;;;;5039790;28;20123;-81
2023/08/06 01:01:14;;;;;;;11.23;6.13;;;13.90;99.90;;;;;;5068984;28;20032;-81
2023/08/06 01:03:39;;;;;;;10.70;5.82;;;13.90;99.90;;;;;;5068125;28;20459;-80
2023/08/06 01:06:06;;;;;;;12.10;5.95;;;13.90;99.90;;;;;;5034449;28;20202;-82
2023/08/06 01:08:56;;;;;;;10.05;5.90;;;13.90;99.90;;;;;;5045036;28;20089;-81
2023/08/06 01:11:31;;;;;;;14.20;6.30;;;13.90;99.90;;;;;;5067512;28;20116;-81
2023/08/06 01:14:08;;;;;;;10.88;5.85;;;13.90;99.90;;;;;;5046306;28;20032;-81
2023/08/06 01:16:35;;;;;;;13.75;6.60;;;14.00;99.90;;;;;;5069286;28;20179;-81
2023/08/06 01:19:00;;;;;;;12.13;6.30;;;14.00;99.90;;;;;;5070686;28;20046;-80
2023/08/06 01:21:26;;;;;;;12.10;6.60;;;13.90;99.90;;;;;;5056424;28;20119;-81
2023/08/06 01:23:52;;;;;;;12.23;6.63;;;14.00;99.90;;;;;;5052086;28;20370;-80
2023/08/06 01:26:22;;;;;;;12.52;6.70;;;13.90;99.90;;;;;;5051104;28;20485;-81
2023/08/06 01:29:21;;;;;;;12.38;6.85;;;14.00;99.90;;;;;;5082264;28;20052;-81
2023/08/06 01:31:50;;;;;;;12.68;6.63;;;14.00;99.90;;;;;;5050219;28;20060;-81
2023/08/06 01:34:20;;;;;;;10.70;6.55;;;14.00;99.90;;;;;;5065951;28;20052;-81
2023/08/06 01:36:46;;;;;;;15.15;7.00;;;14.00;99.90;;;;;;5051670;28;20109;-81
2023/08/06 01:39:12;;;;;;;13.35;6.75;;;14.00;99.90;;;;;;5054562;28;20040;-81
2023/08/06 01:41:38;;;;;;;12.43;7.18;;;14.00;99.90;;;;;;5068801;28;20042;-80
2023/08/06 01:44:04;;;;;;;12.73;6.55;;;14.00;99.90;;;;;;5037126;28;20485;-81
2023/08/06 01:46:30;;;;;;;12.60;7.60;;;13.90;99.90;;;;;;5044799;28;20136;-81
2023/08/06 01:48:56;;;;;;;13.77;7.40;;;14.00;99.90;;;;;;5046485;28;20052;-80
2023/08/06 01:51:22;;;;;;;15.00;7.38;;;14.00;99.90;;;;;;5054328;28;20039;-81
2023/08/06 01:53:47;;;;;;;13.40;7.32;;;14.00;99.90;;;;;;5052436;28;20074;-81
2023/08/06 01:56:13;;;;;;;14.30;7.72;;;14.00;99.90;;;;;;5015598;28;20131;-81
2023/08/06 01:58:39;;;;;;;13.32;7.63;;;14.00;99.90;;;;;;5053059;28;20107;-82
2023/08/06 02:01:04;;;;;;;15.00;7.97;;;14.00;99.90;;;;;;5035316;28;20111;-81
2023/08/06 02:03:30;;;;;;;13.15;7.63;;;14.00;99.90;;;;;;5070360;28;20042;-81
2023/08/06 02:05:56;;;;;;;15.65;8.40;;;14.00;99.90;;;;;;5051344;28;20051;-81
2023/08/06 02:08:21;;;;;;;12.68;8.00;;;14.00;99.90;;;;;;5066364;28;20036;-81
2023/08/06 02:10:47;;;;;;;13.18;8.55;;;14.10;99.90;;;;;;5066684;28;20571;-82
2023/08/06 02:13:13;;;;;;;12.85;8.63;;;14.10;99.90;;;;;;5048811;28;20089;-81
2023/08/06 02:15:43;;;;;;;13.75;8.60;;;14.10;99.90;;;;;;5046513;28;20034;-80
2023/08/06 02:18:09;;;;;;;15.35;9.05;;;14.10;99.90;;;;;;5080800;28;20090;-81
2023/08/06 02:20:34;;;;;;;15.20;9.63;;;14.10;99.90;;;;;;5064280;28;20016;-81
2023/08/06 02:23:00;;;;;;;13.68;9.18;;;14.20;99.90;;;;;;5046303;28;22286;-81
2023/08/06 02:25:26;;;;;;;13.77;8.73;;;14.10;99.90;;;;;;5053432;28;20040;-81
2023/08/06 02:27:51;;;;;;;15.50;9.38;;;14.10;99.90;;;;;;5034895;28;20040;-81
2023/08/06 02:30:17;;;;;;;13.75;9.02;;;14.20;99.90;;;;;;5036164;28;20040;-81
2023/08/06 02:32:43;;;;;;;14.95;9.38;;;14.20;99.90;;;;;;5061201;28;20059;-81
2023/08/06 02:35:09;;;;;;;12.82;8.68;;;14.20;99.90;;;;;;5017987;28;20405;-81
2023/08/06 02:37:35;;;;;;;13.93;9.23;;;14.20;99.90;;;;;;5050779;28;20043;-81
2023/08/06 02:40:01;;;;;;;15.23;8.90;;;14.20;99.90;;;;;;5029734;28;20041;-81
2023/08/06 02:42:26;;;;;;;13.15;8.63;;;14.20;99.90;;;;;;5065528;28;20463;-81
2023/08/06 02:44:54;;;;;;;13.38;8.63;;;14.20;99.90;;;;;;5048528;28;20115;-81
2023/08/06 02:47:20;;;;;;;13.15;8.20;;;14.20;99.90;;;;;;5054709;28;20607;-81
2023/08/06 02:49:46;;;;;;;12.90;8.93;;;14.20;99.90;;;;;;5066404;28;20036;-81
2023/08/06 02:52:12;;;;;;;14.68;9.05;;;14.20;99.90;;;;;;5050620;28;20499;-81
2023/08/06 02:54:38;;;;;;;13.82;9.25;;;14.20;99.90;;;;;;5051486;28;20194;-81
2023/08/06 02:57:05;;;;;;;16.70;9.52;;;14.20;99.90;;;;;;5064132;28;20036;-81
2023/08/06 02:59:31;;;;;;;15.68;11.07;;;14.20;99.90;;;;;;5064128;28;20585;-81
2023/08/06 03:01:56;;;;;;;15.20;10.52;;;14.20;99.90;;;;;;5043758;28;20262;-81
2023/08/06 03:04:22;;;;;;;16.33;10.35;;;14.20;99.90;;;;;;5047310;28;20251;-81
2023/08/06 03:06:51;;;;;;;16.73;10.38;;;14.20;99.90;;;;;;5032985;28;20033;-81
2023/08/06 03:09:17;;;;;;;16.80;10.25;;;14.20;99.90;;;;;;5084077;28;20501;-81
2023/08/06 03:11:43;;;;;;;18.95;10.68;;;14.20;99.90;;;;;;5068194;28;20056;-81
2023/08/06 03:14:09;;;;;;;15.85;10.55;;;14.20;99.90;;;;;;5090317;28;20036;-81
2023/08/06 03:16:35;;;;;;;14.48;9.48;;;14.10;99.90;;;;;;5068582;28;20043;-81
2023/08/06 03:19:01;;;;;;;14.80;8.93;;;14.20;99.90;;;;;;5031552;28;20057;-81
2023/08/06 03:21:27;;;;;;;14.25;9.07;;;14.20;99.90;;;;;;5063603;28;20036;-80
2023/08/06 03:23:53;;;;;;;15.75;9.23;;;14.10;99.90;;;;;;5037658;28;20037;-80
2023/08/06 03:26:19;;;;;;;14.98;9.25;;;14.20;99.90;;;;;;5033876;28;20390;-81
2023/08/06 03:28:44;;;;;;;14.18;9.05;;;14.20;99.90;;;;;;5052475;28;20124;-80
2023/08/06 03:31:10;;;;;;;13.43;9.18;;;14.10;99.90;;;;;;5070310;28;20041;-80
2023/08/06 03:33:36;;;;;;;14.52;8.68;;;14.20;99.90;;;;;;5065367;28;20642;-81
2023/08/06 03:36:02;;;;;;;12.88;7.82;;;14.10;99.90;;;;;;5052420;28;20049;-81
2023/08/06 03:38:28;;;;;;;14.07;8.07;;;14.10;99.90;;;;;;5053357;28;20043;-81
2023/08/06 03:40:53;;;;;;;12.05;8.18;;;14.10;99.90;;;;;;5071115;28;20068;-81
2023/08/06 03:43:19;;;;;;;13.55;8.18;;;14.10;99.90;;;;;;5069596;28;20071;-81
2023/08/06 03:45:45;;;;;;;14.63;7.55;;;14.10;99.90;;;;;;5067866;28;20071;-81
2023/08/06 03:48:12;;;;;;;13.43;7.68;;;14.10;99.90;;;;;;5066891;28;20033;-81
2023/08/06 03:50:38;;;;;;;11.68;7.28;;;14.10;99.90;;;;;;5069021;28;20143;-81
2023/08/06 03:53:03;;;;;;;12.63;7.40;;;14.10;99.90;;;;;;5053123;28;20111;-81
2023/08/06 03:55:29;;;;;;;15.05;8.38;;;14.10;99.90;;;;;;5058846;28;20115;-81
2023/08/06 03:57:55;;;;;;;12.25;7.75;;;14.10;99.90;;;;;;5036172;28;20152;-81
2023/08/06 04:00:20;;;;;;;12.05;7.47;;;14.00;99.90;;;;;;5045734;28;20029;-81
2023/08/06 04:02:46;;;;;;;12.73;7.70;;;14.00;99.90;;;;;;5030330;28;20113;-81
2023/08/06 04:05:12;;;;;;;11.82;7.63;;;14.10;99.90;;;;;;5047259;28;20044;-81
2023/08/06 04:07:38;;;;;;;11.90;7.20;;;14.10;99.90;;;;;;5050373;28;20127;-81
2023/08/06 04:10:05;;;;;;;12.00;6.97;;;14.10;99.90;;;;;;5050933;28;20066;-81
2023/08/06 04:12:31;;;;;;;11.77;7.47;;;14.00;99.90;;;;;;5047283;28;20521;-81
2023/08/06 04:15:01;;;;;;;10.98;6.80;;;14.00;99.90;;;;;;5050404;28;20037;-81
2023/08/06 04:17:26;;;;;;;13.13;7.10;;;14.10;99.90;;;;;;5033563;28;20596;-80
2023/08/06 04:19:54;;;;;;;13.75;7.10;;;14.00;99.90;;;;;;5047733;28;20044;-81
2023/08/06 04:22:21;;;;;;;10.68;7.00;;;14.10;99.90;;;;;;5064036;28;20123;-81
2023/08/06 04:24:47;;;;;;;12.70;7.30;;;14.10;99.90;;;;;;5051600;28;20036;-81
2023/08/06 04:27:14;;;;;;;11.73;7.30;;;14.00;99.90;;;;;;5050772;28;20040;-81
2023/08/06 04:29:40;;;;;;;11.27;7.13;;;14.00;99.90;;;;;;5052244;28;20414;-81
2023/08/06 04:32:08;;;;;;;13.40;7.50;;;14.00;99.90;;;;;;5048287;28;20440;-81
2023/08/06 04:34:34;;;;;;;12.23;7.30;;;14.00;99.90;;;;;;5051030;28;20079;-81
2023/08/06 04:37:01;;;;;;;12.50;7.45;;;14.00;99.90;;;;;;5067838;28;20048;-81
2023/08/06 04:39:27;;;;;;;15.80;7.72;;;14.00;99.90;;;;;;5065503;28;20040;-80
2023/08/06 04:41:52;;;;;;;13.43;7.55;;;14.00;99.90;;;;;;5069129;28;20040;-81
2023/08/06 04:44:18;;;;;;;14.00;6.90;;;13.90;99.90;;;;;;5032100;28;20482;-81
2023/08/06 04:46:44;;;;;;;13.18;7.28;;;13.90;99.90;;;;;;5063201;28;20044;-81
2023/08/06 04:49:10;;;;;;;12.35;7.05;;;13.90;99.90;;;;;;5052979;28;20050;-81
2023/08/06 04:51:35;;;;;;;11.10;7.28;;;13.90;99.90;;;;;;5053195;28;20052;-80
2023/08/06 04:54:01;;;;;;;13.45;7.30;;;14.00;99.90;;;;;;5066924;28;20075;-81
2023/08/06 04:56:27;;;;;;;11.77;7.45;;;14.00;99.90;;;;;;5049888;28;20063;-81
2023/08/06 04:58:53;;;;;;;13.20;7.28;;;14.00;99.90;;;;;;5052657;28;20617;-81
2023/08/06 05:01:18;;;;;;;12.77;7.45;;;14.00;99.90;;;;;;5044248;28;20037;-81
2023/08/06 05:03:44;;;;;;;12.00;6.90;;;14.00;99.90;;;;;;5053156;28;20040;-81
2023/08/06 05:06:10;;;;;;;12.05;8.10;;;14.00;99.90;;;;;;5052243;28;20047;-81
2023/08/06 05:08:36;;;;;;;12.73;7.60;;;14.00;99.90;;;;;;5069477;28;20044;-81
2023/08/06 05:11:02;;;;;;;11.73;7.35;;;14.00;99.90;;;;;;5068437;28;20118;-81
2023/08/06 05:13:28;;;;;;;12.55;7.57;;;14.00;99.90;;;;;;5017009;28;20044;-81
2023/08/06 05:15:54;;;;;;;13.35;8.07;;;14.00;99.90;;;;;;5067056;28;20115;-81
2023/08/06 05:18:20;;;;;;;12.43;8.07;;;14.00;99.90;;;;;;5052332;28;20155;-81
2023/08/06 05:20:46;;;;;;;13.48;7.85;;;14.00;99.90;;;;;;5067774;28;20541;-81
2023/08/06 05:23:11;;;;;;;12.75;7.22;;;14.00;99.90;;;;;;5068812;28;20075;-81
2023/08/06 05:25:40;;;;;;;14.05;7.78;;;14.10;99.90;;;;;;5050192;28;20510;-81
2023/08/06 05:28:06;;;;;;;13.50;7.68;;;14.20;99.90;;;;;;5050795;28;20044;-81
2023/08/06 05:30:32;;;;;;;11.93;7.82;;;14.20;99.90;;;;;;5049893;28;20123;-81
2023/08/06 05:32:58;;;;;;;11.65;7.03;;;14.20;99.90;;;;;;5053544;28;20144;-80
2023/08/06 05:35:23;;;;;;;13.18;8.13;;;14.30;99.90;;;;;;5051165;28;20045;-80
2023/08/06 05:37:52;;;;;;;14.73;8.00;;;14.50;99.90;;;;;;5068730;28;20052;-80
2023/08/06 05:40:18;;;;;;;12.68;7.85;;;14.60;99.90;;;;;;5051314;28;20043;-80
2023/08/06 05:42:44;;;;;;;12.60;7.95;;;14.70;99.90;;;;;;5046135;28;20032;-81
2023/08/06 05:45:10;;;;;;;14.50;8.55;;;14.80;99.90;;;;;;5044075;28;20037;-81
2023/08/06 05:47:35;;;;;;;12.68;7.47;;;14.90;99.90;;;;;;5057640;28;20078;-80
2023/08/06 05:50:01;;;;;;;12.88;7.35;;;14.90;99.90;;;;;;5066607;28;20528;-80
2023/08/06 05:52:27;;;;;;;11.90;7.57;;;14.90;99.90;;;;;;5026240;28;20055;-80
2023/08/06 05:54:53;;;;;;;11.93;7.40;;;14.90;99.90;;;;;;5025853;28;20045;-80
2023/08/06 05:57:19;;;;;;;13.05;7.53;;;14.90;99.90;;;;;;5045353;28;20049;-80
2023/08/06 05:59:44;;;;;;;12.05;7.35;;;15.00;99.90;;;;;;5069462;28;20040;-80
2023/08/06 06:02:10;;;;;;;14.00;7.63;;;15.00;99.90;;;;;;5094526;28;20043;-81
2023/08/06 06:04:37;;;;;;;13.77;7.20;;;15.00;99.90;;;;;;5062089;28;20040;-80
2023/08/06 06:07:03;;;;;;;10.82;7.07;;;15.00;99.90;;;;;;5077934;28;20043;-81
2023/08/06 06:09:29;;;;;;;12.55;7.43;;;15.10;99.90;;;;;;5062855;28;20033;-80
2023/08/06 06:11:54;;;;;;;10.95;6.90;;;15.20;99.90;;;;;;5047138;28;20079;-80
2023/08/06 06:14:20;;;;;;;12.95;7.18;;;15.10;99.90;;;;;;5062852;28;20258;-81
2023/08/06 06:16:46;;;;;;;11.00;6.43;;;15.20;99.90;;;;;;5061424;28;20052;-80
2023/08/06 06:19:12;;;;;;;12.82;6.95;;;15.20;99.90;;;;;;5078061;28;20108;-80
2023/08/06 06:21:41;;;;;;;12.85;7.22;;;15.30;99.90;;;;;;5063601;28;20067;-80
2023/08/06 06:24:08;;;;;;;13.43;7.40;;;15.30;99.90;;;;;;5062923;28;20067;-80
2023/08/06 06:26:33;;;;;;;13.25;7.28;;;15.30;99.90;;;;;;5063565;28;20072;-80
2023/08/06 06:28:59;;;;;;;11.05;6.50;;;15.40;99.90;;;;;;5069274;28;20044;-80
2023/08/06 06:31:25;;;;;;;10.70;6.50;;;15.40;99.90;;;;;;5061153;28;20178;-80
2023/08/06 06:33:53;;;;;;;11.07;6.55;;;15.50;99.90;;;;;;5059339;28;20040;-80
2023/08/06 06:36:19;;;;;;;10.73;6.45;;;15.50;99.90;;;;;;5063718;28;20108;-80
2023/08/06 06:38:44;;;;;;;10.82;6.57;;;15.50;99.90;;;;;;5063606;28;20028;-80
2023/08/06 06:41:10;;;;;;;12.18;6.97;;;15.60;99.90;;;;;;5071725;28;20286;-79
2023/08/06 06:43:38;;;;;;;11.93;6.45;;;15.60;99.90;;;;;;5058079;28;20151;-81
2023/08/06 06:46:04;;;;;;;11.02;6.60;;;15.70;99.90;;;;;;5047920;28;20059;-81
2023/08/06 06:48:32;;;;;;;12.52;6.68;;;15.70;99.90;;;;;;5060277;28;20040;-81
2023/08/06 06:50:58;;;;;;;10.20;6.05;;;15.80;99.90;;;;;;5058153;28;20138;-79
2023/08/06 06:53:27;;;;;;;9.77;6.00;;;15.90;99.90;;;;;;5060211;28;20041;-79
2023/08/06 06:56:03;;;;;;;12.98;6.28;;;16.00;99.90;;;;;;5036279;28;20382;-80
2023/08/06 06:58:30;;;;;;;10.75;6.47;;;16.10;99.90;;;;;;5048859;28;20045;-79
2023/08/06 07:00:55;;;;;;;11.05;5.75;;;16.10;99.90;;;;;;5042280;28;20145;-79
2023/08/06 07:03:21;;;;;;;10.15;5.93;;;16.20;99.90;;;;;;5043976;28;20719;-80
2023/08/06 07:05:47;;;;;;;12.05;6.13;;;16.30;99.90;;;;;;5064654;28;20044;-80
2023/08/06 07:08:13;;;;;;;9.80;5.60;;;16.30;99.90;;;;;;5058482;28;20037;-79
2023/08/06 07:10:41;;;;;;;9.90;5.88;;;16.30;99.90;;;;;;5065382;28;20032;-80
2023/08/06 07:13:06;;;;;;;9.95;5.78;;;16.40;99.90;;;;;;5052592;28;20040;-79
2023/08/06 07:15:32;;;;;;;10.13;5.63;;;16.50;99.90;;;;;;5049223;28;20052;-79
2023/08/06 07:17:58;;;;;;;9.90;5.55;;;16.50;99.90;;;;;;5028902;28;20036;-79
2023/08/06 07:20:24;;;;;;;10.73;5.47;;;16.50;99.90;;;;;;5072435;28;20143;-80
2023/08/06 07:22:50;;;;;;;10.30;5.32;;;16.60;99.90;;;;;;5040499;28;20413;-79
2023/08/06 07:25:16;;;;;;;10.80;6.10;;;16.70;99.90;;;;;;5064425;28;20021;-79
2023/08/06 07:27:42;;;;;;;9.57;5.25;;;16.70;99.90;;;;;;5056644;28;20078;-79
2023/08/06 07:30:08;;;;;;;9.90;5.97;;;16.80;99.90;;;;;;5072877;27;20052;-79
2023/08/06 07:32:34;;;;;;;11.82;6.05;;;16.80;99.90;;;;;;5060768;28;20040;-79
2023/08/06 07:35:02;;;;;;;9.60;5.50;;;16.90;99.90;;;;;;5041427;28;20051;-79
2023/08/06 07:37:28;;;;;;;11.75;6.45;;;16.10;99.90;;;;;;5069127;28;20092;-79
2023/08/06 07:39:54;;;;;;;11.45;5.95;;;17.00;99.90;;;;;;5066917;28;20052;-79
2023/08/06 07:42:20;;;;;;;10.35;6.10;;;17.00;99.90;;;;;;5015296;28;20029;-79
2023/08/06 07:44:55;;;;;;;11.35;5.85;;;16.90;99.90;;;;;;5064401;28;20124;-79
2023/08/06 07:47:21;;;;;;;9.85;5.43;;;17.00;99.90;;;;;;5064275;28;20039;-79
2023/08/06 07:49:46;;;;;;;9.85;5.47;;;17.00;99.90;;;;;;5042874;28;20036;-79
2023/08/06 07:52:12;;;;;;;9.90;5.57;;;17.10;99.90;;;;;;5051582;28;20066;-79
2023/08/06 07:54:38;;;;;;;11.38;5.60;;;17.20;99.90;;;;;;5063576;28;20060;-79
2023/08/06 07:57:04;;;;;;;9.77;5.57;;;17.20;99.90;;;;;;5105260;28;20553;-79
2023/08/06 07:59:30;;;;;;;12.00;5.13;;;17.30;99.90;;;;;;5050493;28;20501;-79
2023/08/06 08:01:56;;;;;;;10.82;5.10;;;17.30;99.90;;;;;;5043641;28;20069;-79
2023/08/06 08:04:22;;;;;;;10.30;4.85;;;17.30;99.90;;;;;;5061230;28;20249;-79
2023/08/06 08:06:47;;;;;;;10.65;4.97;;;17.40;99.90;;;;;;5066929;28;20473;-79
2023/08/06 08:09:14;;;;;;;8.80;4.85;;;17.40;99.90;;;;;;5069118;28;20036;-79
2023/08/06 08:11:40;;;;;;;10.05;5.45;;;17.50;99.90;;;;;;5066087;28;20032;-79
2023/08/06 08:14:06;;;;;;;9.55;5.00;;;17.60;99.90;;;;;;5067563;28;20036;-79
2023/08/06 08:16:32;;;;;;;9.52;5.40;;;17.80;99.90;;;;;;5063519;28;20039;-79
2023/08/06 08:18:58;;;;;;;10.85;5.00;;;17.90;99.90;;;;;;5051086;28;20067;-79
2023/08/06 08:21:24;;;;;;;8.90;4.50;;;18.10;99.90;;;;;;5041589;28;20039;-79
2023/08/06 08:23:50;;;;;;;8.52;4.57;;;18.30;99.90;;;;;;5048913;28;20139;-79
2023/08/06 08:26:16;;;;;;;8.82;4.88;;;18.50;99.90;;;;;;5043265;28;20083;-79
2023/08/06 08:28:41;;;;;;;9.80;4.55;;;18.80;99.90;;;;;;5025984;28;20079;-79
2023/08/06 08:31:11;;;;;;;8.93;4.40;;;19.00;99.90;;;;;;5049683;28;20118;-80
2023/08/06 08:33:38;;;;;;;9.65;4.20;;;19.20;99.90;;;;;;5043778;28;20151;-79
2023/08/06 08:36:04;;;;;;;9.13;4.35;;;19.30;99.90;;;;;;5030695;28;20052;-79
2023/08/06 08:38:30;;;;;;;9.93;4.35;;;19.30;99.90;;;;;;5048129;28;20075;-79
2023/08/06 08:40:56;;;;;;;10.98;4.15;;;19.20;99.90;;;;;;5050814;28;20063;-79
2023/08/06 08:43:22;;;;;;;9.77;3.88;;;19.20;99.90;;;;;;5066202;28;20412;-79
2023/08/06 08:45:54;;;;;;;8.13;3.67;;;19.10;99.90;;;;;;5051690;28;20097;-82
2023/08/06 08:48:21;;;;;;;8.23;3.40;;;19.10;99.90;;;;;;5048036;28;20044;-79
2023/08/06 08:50:49;;;;;;;8.05;3.33;;;19.20;99.90;;;;;;5067294;28;20036;-79
2023/08/06 08:53:16;;;;;;;8.20;3.42;;;19.30;99.90;;;;;;5041916;28;20117;-80
2023/08/06 08:55:44;;;;;;;8.15;4.10;;;19.30;99.90;;;;;;5036628;28;20051;-79
2023/08/06 08:58:10;;;;;;;10.85;4.15;;;19.40;99.90;;;;;;5047733;28;20036;-79
2023/08/06 09:00:36;;;;;;;8.20;3.90;;;19.50;99.90;;;;;;5048890;28;20119;-80
2023/08/06 09:03:06;;;;;;;8.60;4.32;;;19.70;99.90;;;;;;5033171;28;20119;-80
2023/08/06 09:05:32;;;;;;;10.15;4.75;;;19.80;99.90;;;;;;5046866;28;20044;-79
2023/08/06 09:08:03;;;;;;;9.00;4.32;;;19.80;99.90;;;;;;5025112;28;20048;-79
2023/08/06 09:10:29;;;;;;;9.05;4.32;;;19.70;99.90;;;;;;5032825;28;20500;-79
2023/08/06 09:12:56;;;;;;;8.20;3.95;;;19.60;99.90;;;;;;5082713;28;20036;-79
2023/08/06 09:15:26;;;;;;;8.15;3.47;;;19.50;99.90;;;;;;5048012;28;20044;-79
2023/08/06 09:17:55;;;;;;;8.75;3.30;;;19.50;99.90;;;;;;5016929;28;20054;-79
2023/08/06 09:20:21;;;;;;;9.35;3.05;;;19.50;99.90;;;;;;5066200;28;20036;-80
2023/08/06 09:22:48;;;;;;;9.70;2.88;;;19.50;99.90;;;;;;5042210;28;20036;-79
2023/08/06 09:25:25;;;;;;;5.82;2.30;;;19.50;99.90;;;;;;5067476;28;20032;-79
2023/08/06 09:27:51;;;;;;;7.10;2.30;;;19.60;99.90;;;;;;5048592;28;20115;-79
2023/08/06 09:30:31;;;;;;;6.60;2.17;;;19.70;99.90;;;;;;5066401;28;20071;-79
2023/08/06 09:32:57;;;;;;;7.13;2.63;;;19.70;99.90;;;;;;5048602;28;20062;-79
2023/08/06 09:35:23;;;;;;;6.50;2.30;;;19.80;99.90;;;;;;5066347;28;20079;-79
2023/08/06 09:37:49;;;;;;;5.97;2.00;;;19.80;99.90;;;;;;5031345;28;20111;-79
2023/08/06 09:40:31;;;;;;;5.80;2.10;;;19.80;99.90;;;;;;5066636;28;20047;-79
2023/08/06 09:42:58;;;;;;;6.60;2.30;;;19.90;99.90;;;;;;5045844;28;20044;-79
2023/08/06 09:45:33;;;;;;;6.40;2.38;;;20.00;99.90;;;;;;5046857;28;20685;-79
2023/08/06 09:48:02;;;;;;;6.80;2.20;;;20.00;99.90;;;;;;5045329;28;20077;-79
2023/08/06 09:50:33;;;;;;;6.93;2.72;;;20.30;99.90;;;;;;5045557;28;20152;-79
2023/08/06 09:53:00;;;;;;;6.15;2.20;;;20.40;99.90;;;;;;5065452;28;20123;-79
2023/08/06 09:55:27;;;;;;;8.05;2.20;;;20.40;99.90;;;;;;5063398;28;20039;-79
2023/08/06 09:57:54;;;;;;;7.93;2.20;;;20.60;99.90;;;;;;5063805;28;20051;-79
2023/08/06 10:00:20;;;;;;;6.75;2.25;;;20.50;99.90;;;;;;5048258;28;20222;-79
2023/08/06 10:02:48;;;;;;;7.40;2.25;;;20.50;99.90;;;;;;5065066;28;20051;-79
2023/08/06 10:05:15;;;;;;;5.60;2.10;;;20.60;99.90;;;;;;5062066;28;20028;-80
2023/08/06 10:07:43;;;;;;;5.70;2.00;;;20.60;99.90;;;;;;5046292;28;20095;-79
2023/08/06 10:10:09;;;;;;;5.78;2.10;;;20.60;99.90;;;;;;5059318;28;20284;-79
2023/08/06 10:12:44;;;;;;;5.43;2.00;;;20.70;99.90;;;;;;5059546;27;20152;-78
2023/08/06 10:15:14;;;;;;;5.63;2.10;;;20.80;99.90;;;;;;5044933;28;20054;-84
2023/08/06 10:17:41;;;;;;;5.97;2.25;;;20.70;99.90;;;;;;5047405;28;20040;-83
2023/08/06 10:20:08;;;;;;;4.60;1.88;;;20.70;99.90;;;;;;5045041;28;20501;-83
2023/08/06 10:22:34;;;;;;;5.25;1.95;;;20.80;99.90;;;;;;5048713;28;20100;-84
2023/08/06 10:25:04;;;;;;;8.25;2.05;;;20.90;99.90;;;;;;5045031;28;20036;-82
2023/08/06 10:27:41;;;;;;;4.85;1.88;;;21.00;99.90;;;;;;5065324;28;20056;-82
2023/08/06 10:30:30;;;;;;;4.80;2.00;;;21.10;99.90;;;;;;5062077;28;20068;-82
2023/08/06 10:33:03;;;;;;;5.63;1.90;;;21.10;99.90;;;;;;5040332;28;20083;-81
2023/08/06 10:35:40;;;;;;;5.68;1.90;;;21.00;99.90;;;;;;5058977;28;20071;-81
2023/08/06 10:38:10;;;;;;;6.25;1.90;;;21.10;99.90;;;;;;5043358;28;20102;-82
2023/08/06 10:40:39;;;;;;;6.75;1.95;;;21.10;99.90;;;;;;5046509;28;20045;-84
2023/08/06 10:43:10;;;;;;;6.05;1.70;;;21.10;99.90;;;;;;5057658;28;20050;-83
2023/08/06 10:45:37;;;;;;;5.68;1.80;;;21.20;99.90;;;;;;5049896;28;20039;-84
2023/08/06 10:48:03;;;;;;;5.20;1.90;;;21.40;99.90;;;;;;5043758;28;21020;-82
2023/08/06 10:50:29;;;;;;;4.28;1.75;;;21.40;99.90;;;;;;5024592;28;20067;-81
2023/08/06 10:52:55;;;;;;;5.20;1.75;;;21.20;99.90;;;;;;5042977;28;20117;-83
2023/08/06 10:55:26;;;;;;;5.00;1.90;;;21.20;99.90;;;;;;5029618;28;20533;-82
2023/08/06 10:57:52;;;;;;;5.45;1.90;;;21.20;99.90;;;;;;5058178;28;20082;-82
2023/08/06 11:00:18;;;;;;;5.30;1.80;;;21.10;99.90;;;;;;5059815;28;20036;-82
2023/08/06 11:02:44;;;;;;;5.97;2.10;;;21.20;99.90;;;;;;5041719;28;20048;-82
2023/08/06 11:05:10;;;;;;;4.65;1.80;;;21.20;99.90;;;;;;5059019;28;20211;-82
2023/08/06 11:07:37;;;;;;;5.55;2.10;;;21.40;99.90;;;;;;5072404;28;20087;-82
2023/08/06 11:10:13;;;;;;;7.60;1.80;;;21.40;99.90;;;;;;5054109;28;20094;-83
2023/08/06 11:12:39;;;;;;;7.82;2.00;;;21.60;99.90;;;;;;5056595;28;21254;-82
2023/08/06 11:15:06;;;;;;;6.93;1.90;;;21.70;99.90;;;;;;5058792;28;20285;-83
2023/08/06 11:17:33;;;;;;;5.70;1.88;;;21.60;99.90;;;;;;5058604;28;20052;-82
2023/08/06 11:20:04;;;;;;;5.60;2.05;;;21.70;99.90;;;;;;5076372;28;20171;-82
2023/08/06 11:22:30;;;;;;;8.95;2.10;;;21.30;99.90;;;;;;5056149;28;20305;-82
2023/08/06 11:24:55;;;;;;;6.45;2.17;;;21.50;99.90;;;;;;5041809;28;20048;-82
2023/08/06 11:27:21;;;;;;;6.70;2.10;;;21.50;99.90;;;;;;5072703;28;20037;-82
2023/08/06 11:29:47;;;;;;;5.88;1.98;;;21.40;99.90;;;;;;5033086;28;20032;-82
2023/08/06 11:32:13;;;;;;;5.85;2.08;;;21.50;99.90;;;;;;5059431;28;20029;-82
2023/08/06 11:34:40;;;;;;;6.50;2.00;;;21.40;99.90;;;;;;5079942;28;20127;-82
2023/08/06 11:37:06;;;;;;;5.32;1.83;;;21.10;99.90;;;;;;5060472;28;20047;-82
2023/08/06 11:39:36;;;;;;;6.28;2.00;;;21.10;99.90;;;;;;5063451;28;20109;-83
2023/08/06 11:42:06;;;;;;;5.03;1.90;;;21.30;99.90;;;;;;5078700;28;20103;-82
2023/08/06 11:44:36;;;;;;;7.47;2.22;;;21.40;99.90;;;;;;5045432;28;20056;-84
2023/08/06 11:47:05;;;;;;;5.50;2.00;;;21.60;99.90;;;;;;5059885;28;20095;-82
2023/08/06 11:49:46;;;;;;;6.30;1.85;;;21.70;99.90;;;;;;5062741;28;20087;-82
2023/08/06 11:52:19;;;;;;;4.85;1.83;;;21.90;99.90;;;;;;5048518;28;20044;-82
2023/08/06 11:55:08;;;;;;;5.85;1.90;;;21.90;99.90;;;;;;5065387;28;20032;-84
2023/08/06 11:57:37;;;;;;;5.95;2.00;;;21.80;99.90;;;;;;5061630;28;20037;-82
2023/08/06 12:00:11;;;;;;;4.88;1.90;;;21.80;99.90;;;;;;5046074;28;20040;-81
2023/08/06 12:02:41;;;;;;;5.45;2.10;;;22.00;99.90;;;;;;5037571;28;20037;-82
2023/08/06 12:05:11;;;;;;;6.28;2.03;;;22.10;99.90;;;;;;5033650;28;20082;-82
2023/08/06 12:07:47;;;;;;;4.90;1.95;;;22.00;99.90;;;;;;5049474;28;20048;-82
2023/08/06 12:10:13;;;;;;;6.78;2.13;;;22.10;99.90;;;;;;5045933;28;20044;-81
2023/08/06 12:12:40;;;;;;;5.07;1.90;;;22.10;99.90;;;;;;5044744;28;20037;-83
2023/08/06 12:15:07;;;;;;;5.78;2.10;;;22.10;99.90;;;;;;5031113;28;20032;-82
2023/08/06 12:17:33;;;;;;;5.72;2.00;;;22.20;99.90;;;;;;5047301;28;20405;-82
2023/08/06 12:19:59;;;;;;;5.63;2.08;;;22.10;99.90;;;;;;5047006;28;20140;-84
2023/08/06 12:22:25;;;;;;;6.93;2.20;;;22.10;99.90;;;;;;5048578;28;20040;-84
2023/08/06 12:24:51;;;;;;;5.22;1.92;;;22.10;99.90;;;;;;5040539;28;20108;-83
2023/08/06 12:27:16;;;;;;;6.47;2.17;;;22.00;99.90;;;;;;5050360;28;20048;-82
2023/08/06 12:29:44;;;;;;;6.55;1.90;;;22.00;99.90;;;;;;5061810;28;20397;-83
2023/08/06 12:32:11;;;;;;;6.35;2.00;;;21.80;99.90;;;;;;5043501;28;20040;-81
2023/08/06 12:34:41;;;;;;;5.75;2.00;;;22.30;99.90;;;;;;5049840;28;20206;-82
2023/08/06 12:37:08;;;;;;;4.70;1.77;;;22.30;99.90;;;;;;5050166;28;20029;-82
2023/08/06 12:39:37;;;;;;;7.15;2.10;;;22.30;99.90;;;;;;5063557;28;20048;-83